sensor_id;sensor_type;location;lat;lon;timestamp;pressure;altitude;pressure_sealevel;temperature;humidity
83418;BME280;74442;50.104;14.472;2024-01-10T00:06:38;100967.29;;;-9.04;81.95
83418;BME280;74442;50.104;14.472;2024-01-10T00:09:42;100959.07;;;-8.96;82.32
83418;BME280;74442;50.104;14.472;2024-01-10T00:16:14;100947.05;;;-8.88;81.59
83418;BME280;74442;50.104;14.472;2024-01-10T00:22:45;100943.52;;;-8.81;80.33
83418;BME280;74442;50.104;14.472;2024-01-10T00:26:05;100948.58;;;-8.81;80.04
83418;BME280;74442;50.104;14.472;2024-01-10T00:36:19;100940.43;;;-8.88;78.26
83418;BME280;74442;50.104;14.472;2024-01-10T01:00:19;100934.70;;;-9.04;76.95
83418;BME280;74442;50.104;14.472;2024-01-10T01:06:59;100936.06;;;-9.06;76.87
83418;BME280;74442;50.104;14.472;2024-01-10T01:10:30;100939.85;;;-9.03;76.64
83418;BME280;74442;50.104;14.472;2024-01-10T01:17:49;100944.21;;;-9.04;76.45
83418;BME280;74442;50.104;14.472;2024-01-10T01:21:07;100938.45;;;-9.09;76.40
83418;BME280;74442;50.104;14.472;2024-01-10T01:24:33;100943.17;;;-9.13;76.32
83418;BME280;74442;50.104;14.472;2024-01-10T01:30:59;100940.59;;;-9.19;76.29
83418;BME280;74442;50.104;14.472;2024-01-10T01:37:25;100943.39;;;-9.18;76.19
83418;BME280;74442;50.104;14.472;2024-01-10T01:44:07;100937.92;;;-9.31;76.00
83418;BME280;74442;50.104;14.472;2024-01-10T01:47:27;100939.79;;;-9.30;76.06
83418;BME280;74442;50.104;14.472;2024-01-10T01:57:14;100937.58;;;-9.41;75.98
83418;BME280;74442;50.104;14.472;2024-01-10T02:00:39;100934.90;;;-9.45;76.06
83418;BME280;74442;50.104;14.472;2024-01-10T02:07:07;100938.73;;;-9.52;76.05
83418;BME280;74442;50.104;14.472;2024-01-10T02:10:32;100938.66;;;-9.54;76.06
83418;BME280;74442;50.104;14.472;2024-01-10T02:23:58;100931.91;;;-9.48;76.68
83418;BME280;74442;50.104;14.472;2024-01-10T02:30:44;100932.77;;;-9.51;76.07
83418;BME280;74442;50.104;14.472;2024-01-10T02:41:04;100929.98;;;-9.58;76.04
83418;BME280;74442;50.104;14.472;2024-01-10T02:44:13;100931.88;;;-9.62;75.87
83418;BME280;74442;50.104;14.472;2024-01-10T02:54:23;100917.35;;;-9.68;76.07
83418;BME280;74442;50.104;14.472;2024-01-10T03:04:35;100912.60;;;-9.73;76.09
83418;BME280;74442;50.104;14.472;2024-01-10T03:08:11;100913.45;;;-9.77;76.17
83418;BME280;74442;50.104;14.472;2024-01-10T03:17:53;100907.25;;;-9.82;76.00
83418;BME280;74442;50.104;14.472;2024-01-10T03:20:28;100901.21;;;-9.82;76.05
83418;BME280;74442;50.104;14.472;2024-01-10T03:23:01;100904.09;;;-9.83;75.95
83418;BME280;74442;50.104;14.472;2024-01-10T03:25:33;100907.14;;;-9.83;76.02
83418;BME280;74442;50.104;14.472;2024-01-10T03:28:06;100909.45;;;-9.83;75.92
83418;BME280;74442;50.104;14.472;2024-01-10T03:30:41;100904.95;;;-9.83;75.84
83418;BME280;74442;50.104;14.472;2024-01-10T03:33:11;100907.11;;;-9.85;75.76
83418;BME280;74442;50.104;14.472;2024-01-10T03:35:46;100900.63;;;-9.87;75.87
83418;BME280;74442;50.104;14.472;2024-01-10T03:38:18;100900.16;;;-9.88;75.83
83418;BME280;74442;50.104;14.472;2024-01-10T03:40:52;100894.45;;;-9.91;75.71
83418;BME280;74442;50.104;14.472;2024-01-10T03:43:47;100895.63;;;-9.95;75.80
83418;BME280;74442;50.104;14.472;2024-01-10T03:46:23;100896.85;;;-9.93;75.87
83418;BME280;74442;50.104;14.472;2024-01-10T03:48:59;100895.34;;;-9.93;75.84
83418;BME280;74442;50.104;14.472;2024-01-10T03:51:37;100892.18;;;-9.94;75.81
83418;BME280;74442;50.104;14.472;2024-01-10T03:54:13;100888.52;;;-9.95;75.79
83418;BME280;74442;50.104;14.472;2024-01-10T03:56:46;100887.04;;;-9.95;75.78
83418;BME280;74442;50.104;14.472;2024-01-10T03:59:19;100886.23;;;-9.94;75.79
83418;BME280;74442;50.104;14.472;2024-01-10T04:01:52;100887.06;;;-9.88;75.80
83418;BME280;74442;50.104;14.472;2024-01-10T04:04:24;100885.67;;;-9.84;75.79
83418;BME280;74442;50.104;14.472;2024-01-10T04:07:03;100887.09;;;-9.81;75.65
83418;BME280;74442;50.104;14.472;2024-01-10T04:09:35;100890.83;;;-9.76;75.57
83418;BME280;74442;50.104;14.472;2024-01-10T04:12:09;100889.99;;;-9.75;75.47
83418;BME280;74442;50.104;14.472;2024-01-10T04:14:41;100884.57;;;-9.72;75.49
83418;BME280;74442;50.104;14.472;2024-01-10T04:17:13;100882.82;;;-9.72;75.47
83418;BME280;74442;50.104;14.472;2024-01-10T04:20:00;100884.01;;;-9.71;75.49
83418;BME280;74442;50.104;14.472;2024-01-10T04:22:31;100883.09;;;-9.70;75.60
83418;BME280;74442;50.104;14.472;2024-01-10T04:25:11;100875.42;;;-9.71;75.63
83418;BME280;74442;50.104;14.472;2024-01-10T04:27:42;100872.41;;;-9.69;75.67
83418;BME280;74442;50.104;14.472;2024-01-10T04:30:19;100873.45;;;-9.70;75.75
83418;BME280;74442;50.104;14.472;2024-01-10T04:32:51;100876.34;;;-9.72;75.76
83418;BME280;74442;50.104;14.472;2024-01-10T04:35:22;100877.55;;;-9.73;75.91
83418;BME280;74442;50.104;14.472;2024-01-10T04:37:59;100879.31;;;-9.72;76.01
83418;BME280;74442;50.104;14.472;2024-01-10T04:40:32;100880.55;;;-9.73;76.16
83418;BME280;74442;50.104;14.472;2024-01-10T04:43:02;100879.31;;;-9.75;76.16
83418;BME280;74442;50.104;14.472;2024-01-10T04:45:36;100877.58;;;-9.77;76.23
83418;BME280;74442;50.104;14.472;2024-01-10T04:48:10;100879.05;;;-9.78;76.26
83418;BME280;74442;50.104;14.472;2024-01-10T04:50:51;100882.85;;;-9.80;76.31
83418;BME280;74442;50.104;14.472;2024-01-10T04:53:27;100882.54;;;-9.82;76.34
83418;BME280;74442;50.104;14.472;2024-01-10T04:56:01;100878.77;;;-9.84;76.33
83418;BME280;74442;50.104;14.472;2024-01-10T04:58:33;100880.33;;;-9.85;76.40
83418;BME280;74442;50.104;14.472;2024-01-10T05:01:09;100884.08;;;-9.84;76.44
83418;BME280;74442;50.104;14.472;2024-01-10T05:03:41;100887.15;;;-9.84;76.41
83418;BME280;74442;50.104;14.472;2024-01-10T05:06:14;100893.62;;;-9.83;76.42
83418;BME280;74442;50.104;14.472;2024-01-10T05:08:49;100887.93;;;-9.82;76.48
83418;BME280;74442;50.104;14.472;2024-01-10T05:11:27;100887.18;;;-9.82;76.33
83418;BME280;74442;50.104;14.472;2024-01-10T05:14:01;100887.13;;;-9.83;76.33
83418;BME280;74442;50.104;14.472;2024-01-10T05:16:34;100885.60;;;-9.83;76.40
83418;BME280;74442;50.104;14.472;2024-01-10T05:19:07;100882.56;;;-9.83;76.36
83418;BME280;74442;50.104;14.472;2024-01-10T05:21:45;100882.05;;;-9.80;76.46
83418;BME280;74442;50.104;14.472;2024-01-10T05:24:22;100881.98;;;-9.79;76.32
83418;BME280;74442;50.104;14.472;2024-01-10T05:26:56;100881.52;;;-9.78;76.39
83418;BME280;74442;50.104;14.472;2024-01-10T05:29:33;100880.21;;;-9.78;76.28
83418;BME280;74442;50.104;14.472;2024-01-10T05:32:29;100877.74;;;-9.79;76.22
83418;BME280;74442;50.104;14.472;2024-01-10T05:35:05;100877.02;;;-9.81;76.13
83418;BME280;74442;50.104;14.472;2024-01-10T05:37:41;100878.98;;;-9.85;76.23
83418;BME280;74442;50.104;14.472;2024-01-10T05:40:19;100876.52;;;-9.86;76.30
83418;BME280;74442;50.104;14.472;2024-01-10T05:42:51;100883.59;;;-9.86;76.37
83418;BME280;74442;50.104;14.472;2024-01-10T05:45:22;100879.15;;;-9.89;76.30
83418;BME280;74442;50.104;14.472;2024-01-10T05:47:52;100879.81;;;-9.90;76.35
83418;BME280;74442;50.104;14.472;2024-01-10T05:50:25;100880.32;;;-9.91;76.37
83418;BME280;74442;50.104;14.472;2024-01-10T05:52:57;100882.67;;;-9.93;76.34
83418;BME280;74442;50.104;14.472;2024-01-10T05:55:27;100880.55;;;-9.94;76.44
83418;BME280;74442;50.104;14.472;2024-01-10T05:57:59;100876.31;;;-9.95;76.58
83418;BME280;74442;50.104;14.472;2024-01-10T06:00:30;100875.41;;;-9.97;76.45
83418;BME280;74442;50.104;14.472;2024-01-10T06:03:01;100876.33;;;-9.98;76.53
83418;BME280;74442;50.104;14.472;2024-01-10T06:05:31;100874.17;;;-9.99;76.50
83418;BME280;74442;50.104;14.472;2024-01-10T06:08:06;100870.21;;;-10.01;76.56
83418;BME280;74442;50.104;14.472;2024-01-10T06:10:37;100869.11;;;-10.02;76.55
83418;BME280;74442;50.104;14.472;2024-01-10T06:13:13;100866.41;;;-10.04;76.51
83418;BME280;74442;50.104;14.472;2024-01-10T06:15:45;100869.30;;;-10.05;76.61
83418;BME280;74442;50.104;14.472;2024-01-10T06:18:16;100871.30;;;-10.03;76.65
83418;BME280;74442;50.104;14.472;2024-01-10T06:20:48;100867.55;;;-10.06;76.60
83418;BME280;74442;50.104;14.472;2024-01-10T06:23:19;100865.27;;;-10.08;76.54
83418;BME280;74442;50.104;14.472;2024-01-10T06:25:53;100863.52;;;-10.10;76.69
83418;BME280;74442;50.104;14.472;2024-01-10T06:28:27;100865.98;;;-10.08;76.80
83418;BME280;74442;50.104;14.472;2024-01-10T06:30:59;100869.27;;;-10.05;76.82
83418;BME280;74442;50.104;14.472;2024-01-10T06:33:31;100865.98;;;-10.05;76.68
83418;BME280;74442;50.104;14.472;2024-01-10T06:36:06;100866.81;;;-10.08;76.49
83418;BME280;74442;50.104;14.472;2024-01-10T06:38:41;100868.42;;;-10.09;76.61
83418;BME280;74442;50.104;14.472;2024-01-10T06:41:12;100871.11;;;-10.07;76.68
83418;BME280;74442;50.104;14.472;2024-01-10T06:43:44;100869.93;;;-10.05;76.60
83418;BME280;74442;50.104;14.472;2024-01-10T06:46:26;100867.20;;;-10.02;76.57
83418;BME280;74442;50.104;14.472;2024-01-10T06:49:00;100863.48;;;-10.01;76.46
83418;BME280;74442;50.104;14.472;2024-01-10T06:51:34;100869.10;;;-9.99;76.33
83418;BME280;74442;50.104;14.472;2024-01-10T06:54:10;100867.89;;;-9.98;76.27
83418;BME280;74442;50.104;14.472;2024-01-10T06:56:49;100868.56;;;-9.98;76.10
83418;BME280;74442;50.104;14.472;2024-01-10T06:59:24;100870.65;;;-9.97;76.07
83418;BME280;74442;50.104;14.472;2024-01-10T07:02:06;100872.51;;;-9.94;76.03
83418;BME280;74442;50.104;14.472;2024-01-10T07:04:46;100875.62;;;-9.88;75.98
83418;BME280;74442;50.104;14.472;2024-01-10T07:07:27;100876.87;;;-9.84;75.78
83418;BME280;74442;50.104;14.472;2024-01-10T07:10:02;100878.77;;;-9.84;75.65
83418;BME280;74442;50.104;14.472;2024-01-10T07:12:39;100876.69;;;-9.83;75.72
83418;BME280;74442;50.104;14.472;2024-01-10T07:15:15;100880.39;;;-9.83;75.66
83418;BME280;74442;50.104;14.472;2024-01-10T07:17:59;100879.84;;;-9.81;75.67
83418;BME280;74442;50.104;14.472;2024-01-10T07:20:40;100884.29;;;-9.78;75.70
83418;BME280;74442;50.104;14.472;2024-01-10T07:23:22;100887.86;;;-9.74;75.58
83418;BME280;74442;50.104;14.472;2024-01-10T07:25:56;100894.60;;;-9.69;75.50
83418;BME280;74442;50.104;14.472;2024-01-10T07:28:35;100897.73;;;-9.65;75.41
83418;BME280;74442;50.104;14.472;2024-01-10T07:31:09;100894.36;;;-9.60;75.23
83418;BME280;74442;50.104;14.472;2024-01-10T07:33:55;100897.45;;;-9.53;75.02
83418;BME280;74442;50.104;14.472;2024-01-10T07:36:29;100899.26;;;-9.46;74.99
83418;BME280;74442;50.104;14.472;2024-01-10T07:39:08;100898.79;;;-9.41;74.91
83418;BME280;74442;50.104;14.472;2024-01-10T07:42:09;100896.61;;;-9.32;74.63
83418;BME280;74442;50.104;14.472;2024-01-10T07:44:59;100897.72;;;-9.24;74.47
83418;BME280;74442;50.104;14.472;2024-01-10T07:51:22;100902.52;;;-9.09;74.11
83418;BME280;74442;50.104;14.472;2024-01-10T07:54:05;100898.52;;;-8.99;73.94
83418;BME280;74442;50.104;14.472;2024-01-10T07:56:49;100909.27;;;-8.90;73.78
83418;BME280;74442;50.104;14.472;2024-01-10T07:59:25;100917.24;;;-8.79;73.36
83418;BME280;74442;50.104;14.472;2024-01-10T08:02:15;100918.05;;;-8.68;73.09
83418;BME280;74442;50.104;14.472;2024-01-10T08:05:04;100922.70;;;-8.33;72.63
83418;BME280;74442;50.104;14.472;2024-01-10T08:07:57;100918.05;;;-7.88;72.19
83418;BME280;74442;50.104;14.472;2024-01-10T08:10:39;100915.41;;;-7.43;71.15
83418;BME280;74442;50.104;14.472;2024-01-10T08:13:21;100917.35;;;-7.07;69.92
83418;BME280;74442;50.104;14.472;2024-01-10T08:15:58;100914.63;;;-6.73;68.80
83418;BME280;74442;50.104;14.472;2024-01-10T08:18:32;100914.06;;;-6.43;67.10
83418;BME280;74442;50.104;14.472;2024-01-10T08:21:10;100912.96;;;-6.14;65.91
83418;BME280;74442;50.104;14.472;2024-01-10T08:23:43;100911.92;;;-5.88;65.12
83418;BME280;74442;50.104;14.472;2024-01-10T08:26:22;100908.80;;;-5.62;64.59
83418;BME280;74442;50.104;14.472;2024-01-10T08:28:56;100911.89;;;-5.37;64.64
83418;BME280;74442;50.104;14.472;2024-01-10T08:31:34;100913.61;;;-5.08;62.94
83418;BME280;74442;50.104;14.472;2024-01-10T08:34:09;100914.05;;;-4.79;62.91
83418;BME280;74442;50.104;14.472;2024-01-10T08:36:41;100915.83;;;-4.59;61.90
83418;BME280;74442;50.104;14.472;2024-01-10T08:39:18;100918.94;;;-4.40;60.84
83418;BME280;74442;50.104;14.472;2024-01-10T08:41:54;100920.72;;;-4.17;60.79
83418;BME280;74442;50.104;14.472;2024-01-10T08:44:29;100918.45;;;-3.89;60.65
83418;BME280;74442;50.104;14.472;2024-01-10T08:47:01;100919.03;;;-3.57;59.37
83418;BME280;74442;50.104;14.472;2024-01-10T08:49:34;100915.80;;;-3.30;58.16
83418;BME280;74442;50.104;14.472;2024-01-10T08:52:10;100919.26;;;-3.06;57.51
83418;BME280;74442;50.104;14.472;2024-01-10T08:54:44;100917.84;;;-2.80;57.44
83418;BME280;74442;50.104;14.472;2024-01-10T08:57:17;100915.64;;;-2.54;57.19
83418;BME280;74442;50.104;14.472;2024-01-10T08:59:48;100912.85;;;-2.24;57.08
83418;BME280;74442;50.104;14.472;2024-01-10T09:02:39;100908.30;;;-1.82;56.82
83418;BME280;74442;50.104;14.472;2024-01-10T09:05:29;100905.33;;;-1.37;56.20
83418;BME280;74442;50.104;14.472;2024-01-10T09:08:09;100905.09;;;-1.00;54.94
83418;BME280;74442;50.104;14.472;2024-01-10T09:10:43;100906.96;;;-0.83;52.96
83418;BME280;74442;50.104;14.472;2024-01-10T09:13:14;100909.52;;;-0.71;52.85
83418;BME280;74442;50.104;14.472;2024-01-10T09:15:49;100908.10;;;-0.52;52.41
83418;BME280;74442;50.104;14.472;2024-01-10T09:18:20;100907.93;;;-0.30;50.42
83418;BME280;74442;50.104;14.472;2024-01-10T09:20:58;100902.85;;;-0.07;50.66
83418;BME280;74442;50.104;14.472;2024-01-10T09:30:36;100893.59;;;2.39;45.96
83418;BME280;74442;50.104;14.472;2024-01-10T09:37:32;100889.00;;;2.35;43.58
83418;BME280;74442;50.104;14.472;2024-01-10T09:54:48;100880.96;;;3.36;42.01
83418;BME280;74442;50.104;14.472;2024-01-10T10:15:16;100857.22;;;4.62;38.57
83418;BME280;74442;50.104;14.472;2024-01-10T10:17:49;100856.11;;;4.60;37.02
83418;BME280;74442;50.104;14.472;2024-01-10T10:20:24;100856.48;;;4.57;36.86
83418;BME280;74442;50.104;14.472;2024-01-10T10:23:03;100862.65;;;4.46;36.41
83418;BME280;74442;50.104;14.472;2024-01-10T10:25:35;100867.08;;;4.48;37.35
83418;BME280;74442;50.104;14.472;2024-01-10T10:28:08;100865.73;;;4.49;36.77
83418;BME280;74442;50.104;14.472;2024-01-10T10:30:40;100863.05;;;4.50;36.85
83418;BME280;74442;50.104;14.472;2024-01-10T11:18:43;100831.81;;;6.05;35.60
83418;BME280;74442;50.104;14.472;2024-01-10T11:21:30;100827.76;;;6.24;35.47
83418;BME280;74442;50.104;14.472;2024-01-10T11:24:08;100832.33;;;6.38;34.85
83418;BME280;74442;50.104;14.472;2024-01-10T11:26:49;100822.58;;;6.41;34.32
83418;BME280;74442;50.104;14.472;2024-01-10T11:29:23;100822.46;;;6.29;34.08
83418;BME280;74442;50.104;14.472;2024-01-10T11:32:22;100823.55;;;6.14;34.62
83418;BME280;74442;50.104;14.472;2024-01-10T11:34:59;100820.27;;;6.18;34.83
83418;BME280;74442;50.104;14.472;2024-01-10T11:37:39;100818.23;;;6.31;34.69
83418;BME280;74442;50.104;14.472;2024-01-10T11:43:24;100815.45;;;6.19;34.97
83418;BME280;74442;50.104;14.472;2024-01-10T11:45:59;100811.92;;;6.13;35.02
83418;BME280;74442;50.104;14.472;2024-01-10T11:48:38;100813.17;;;6.22;35.71
83418;BME280;74442;50.104;14.472;2024-01-10T11:51:16;100811.81;;;6.27;35.04
83418;BME280;74442;50.104;14.472;2024-01-10T11:53:47;100809.66;;;6.21;34.78
83418;BME280;74442;50.104;14.472;2024-01-10T11:56:21;100809.19;;;6.26;35.63
83418;BME280;74442;50.104;14.472;2024-01-10T11:59:02;100810.48;;;6.24;35.06
83418;BME280;74442;50.104;14.472;2024-01-10T12:01:41;100809.73;;;6.18;35.86
83418;BME280;74442;50.104;14.472;2024-01-10T12:04:12;100812.22;;;6.20;35.63
83418;BME280;74442;50.104;14.472;2024-01-10T12:06:49;100808.89;;;6.11;35.16
83418;BME280;74442;50.104;14.472;2024-01-10T12:09:29;100809.53;;;6.09;36.00
83418;BME280;74442;50.104;14.472;2024-01-10T12:12:03;100804.42;;;6.03;35.99
83418;BME280;74442;50.104;14.472;2024-01-10T12:14:39;100802.80;;;6.06;36.09
83418;BME280;74442;50.104;14.472;2024-01-10T12:17:18;100802.54;;;6.16;36.34
83418;BME280;74442;50.104;14.472;2024-01-10T12:19:52;100798.56;;;6.20;35.85
83418;BME280;74442;50.104;14.472;2024-01-10T12:22:26;100796.41;;;6.18;35.95
83418;BME280;74442;50.104;14.472;2024-01-10T12:25:09;100791.35;;;6.17;36.41
83418;BME280;74442;50.104;14.472;2024-01-10T12:27:40;100791.34;;;6.21;36.47
83418;BME280;74442;50.104;14.472;2024-01-10T12:30:14;100788.61;;;6.30;35.85
83418;BME280;74442;50.104;14.472;2024-01-10T12:32:49;100784.63;;;6.26;36.08
83418;BME280;74442;50.104;14.472;2024-01-10T12:35:23;100780.71;;;6.28;35.80
83418;BME280;74442;50.104;14.472;2024-01-10T12:38:00;100779.55;;;6.37;36.06
83418;BME280;74442;50.104;14.472;2024-01-10T12:40:34;100773.81;;;6.45;35.86
83418;BME280;74442;50.104;14.472;2024-01-10T12:43:09;100777.45;;;6.41;36.19
83418;BME280;74442;50.104;14.472;2024-01-10T12:45:43;100776.27;;;6.50;36.36
83418;BME280;74442;50.104;14.472;2024-01-10T12:48:16;100771.70;;;6.53;36.01
83418;BME280;74442;50.104;14.472;2024-01-10T12:50:51;100771.52;;;6.53;36.22
83418;BME280;74442;50.104;14.472;2024-01-10T12:53:25;100762.77;;;6.72;36.06
83418;BME280;74442;50.104;14.472;2024-01-10T12:55:56;100763.48;;;6.82;36.18
83418;BME280;74442;50.104;14.472;2024-01-10T12:58:29;100765.91;;;6.91;36.00
83418;BME280;74442;50.104;14.472;2024-01-10T13:01:04;100759.34;;;6.91;35.58
83418;BME280;74442;50.104;14.472;2024-01-10T13:03:35;100760.90;;;6.87;36.42
83418;BME280;74442;50.104;14.472;2024-01-10T13:06:13;100760.86;;;6.81;35.29
83418;BME280;74442;50.104;14.472;2024-01-10T13:08:54;100757.24;;;6.87;36.43
83418;BME280;74442;50.104;14.472;2024-01-10T13:11:31;100749.97;;;7.05;36.81
83418;BME280;74442;50.104;14.472;2024-01-10T13:14:02;100752.73;;;7.24;36.05
83418;BME280;74442;50.104;14.472;2024-01-10T13:16:38;100755.48;;;7.32;36.28
83418;BME280;74442;50.104;14.472;2024-01-10T13:19:16;100749.10;;;7.47;36.13
83418;BME280;74442;50.104;14.472;2024-01-10T13:21:50;100749.63;;;7.53;35.80
83418;BME280;74442;50.104;14.472;2024-01-10T13:24:24;100744.99;;;7.49;35.63
83418;BME280;74442;50.104;14.472;2024-01-10T13:27:03;100742.98;;;7.27;35.22
83418;BME280;74442;50.104;14.472;2024-01-10T13:29:37;100743.01;;;7.13;35.61
83418;BME280;74442;50.104;14.472;2024-01-10T13:32:08;100739.64;;;7.06;36.01
83418;BME280;74442;50.104;14.472;2024-01-10T13:34:40;100736.61;;;7.04;36.19
83418;BME280;74442;50.104;14.472;2024-01-10T13:37:12;100735.61;;;7.05;35.77
83418;BME280;74442;50.104;14.472;2024-01-10T13:39:48;100740.98;;;7.05;36.39
83418;BME280;74442;50.104;14.472;2024-01-10T13:42:19;100745.81;;;7.10;36.19
83418;BME280;74442;50.104;14.472;2024-01-10T13:44:52;100746.70;;;6.96;35.95
83418;BME280;74442;50.104;14.472;2024-01-10T13:47:30;100744.82;;;6.92;36.62
83418;BME280;74442;50.104;14.472;2024-01-10T13:50:04;100746.88;;;6.87;36.83
83418;BME280;74442;50.104;14.472;2024-01-10T13:52:40;100749.56;;;6.85;36.52
83418;BME280;74442;50.104;14.472;2024-01-10T13:55:17;100745.00;;;6.69;37.13
83418;BME280;74442;50.104;14.472;2024-01-10T13:57:48;100741.59;;;6.71;37.12
83418;BME280;74442;50.104;14.472;2024-01-10T14:00:26;100744.52;;;6.62;36.62
83418;BME280;74442;50.104;14.472;2024-01-10T14:02:57;100743.36;;;6.50;36.82
83418;BME280;74442;50.104;14.472;2024-01-10T14:05:31;100747.13;;;6.44;36.97
83418;BME280;74442;50.104;14.472;2024-01-10T14:08:07;100751.42;;;6.35;36.70
83418;BME280;74442;50.104;14.472;2024-01-10T14:10:46;100750.58;;;6.31;37.74
83418;BME280;74442;50.104;14.472;2024-01-10T14:13:19;100747.21;;;6.29;37.40
83418;BME280;74442;50.104;14.472;2024-01-10T14:15:52;100746.91;;;6.17;37.79
83418;BME280;74442;50.104;14.472;2024-01-10T14:18:24;100746.37;;;6.12;38.09
83418;BME280;74442;50.104;14.472;2024-01-10T14:20:58;100738.61;;;6.08;38.21
83418;BME280;74442;50.104;14.472;2024-01-10T14:23:30;100738.39;;;5.99;38.05
83418;BME280;74442;50.104;14.472;2024-01-10T14:26:04;100739.82;;;5.80;38.09
83418;BME280;74442;50.104;14.472;2024-01-10T14:28:39;100733.17;;;5.57;38.26
83418;BME280;74442;50.104;14.472;2024-01-10T14:31:14;100735.38;;;5.41;38.90
83418;BME280;74442;50.104;14.472;2024-01-10T14:33:52;100729.21;;;5.22;39.37
83418;BME280;74442;50.104;14.472;2024-01-10T14:36:33;100732.00;;;5.07;39.72
83418;BME280;74442;50.104;14.472;2024-01-10T14:39:09;100733.47;;;4.94;40.42
83418;BME280;74442;50.104;14.472;2024-01-10T14:44:32;100740.91;;;3.51;42.04
83418;BME280;74442;50.104;14.472;2024-01-10T14:47:08;100743.98;;;2.65;43.86
83418;BME280;74442;50.104;14.472;2024-01-10T14:49:44;100751.93;;;1.99;45.60
83418;BME280;74442;50.104;14.472;2024-01-10T14:52:19;100746.47;;;1.43;47.18
83418;BME280;74442;50.104;14.472;2024-01-10T14:55:04;100748.58;;;0.96;48.69
83418;BME280;74442;50.104;14.472;2024-01-10T16:17:11;100753.42;;;-3.53;64.31
83418;BME280;74442;50.104;14.472;2024-01-10T16:20:17;100749.30;;;-3.66;64.41
83418;BME280;74442;50.104;14.472;2024-01-10T16:23:18;100759.29;;;-3.71;64.89
83418;BME280;74442;50.104;14.472;2024-01-10T16:29:29;100756.16;;;-3.63;65.61
83418;BME280;74442;50.104;14.472;2024-01-10T16:32:06;100763.80;;;-3.66;65.31
83418;BME280;74442;50.104;14.472;2024-01-10T16:34:44;100761.46;;;-3.74;65.18
83418;BME280;74442;50.104;14.472;2024-01-10T16:37:19;100759.98;;;-3.80;65.30
83418;BME280;74442;50.104;14.472;2024-01-10T16:39:53;100758.05;;;-3.85;65.32
83418;BME280;74442;50.104;14.472;2024-01-10T16:42:27;100764.69;;;-3.89;65.62
83418;BME280;74442;50.104;14.472;2024-01-10T16:45:09;100765.19;;;-3.91;65.94
83418;BME280;74442;50.104;14.472;2024-01-10T16:47:40;100763.45;;;-3.94;66.24
83418;BME280;74442;50.104;14.472;2024-01-10T16:50:16;100761.20;;;-4.01;66.21
83418;BME280;74442;50.104;14.472;2024-01-10T16:52:54;100757.59;;;-4.05;66.59
83418;BME280;74442;50.104;14.472;2024-01-10T16:55:25;100758.57;;;-4.06;67.22
83418;BME280;74442;50.104;14.472;2024-01-10T16:57:59;100759.45;;;-4.05;67.65
83418;BME280;74442;50.104;14.472;2024-01-10T17:00:29;100760.79;;;-4.04;67.94
83418;BME280;74442;50.104;14.472;2024-01-10T17:03:02;100760.04;;;-4.03;68.04
83418;BME280;74442;50.104;14.472;2024-01-10T17:05:34;100762.25;;;-4.04;68.02
83418;BME280;74442;50.104;14.472;2024-01-10T17:08:08;100757.33;;;-4.11;67.79
83418;BME280;74442;50.104;14.472;2024-01-10T17:10:39;100756.49;;;-4.21;67.86
83418;BME280;74442;50.104;14.472;2024-01-10T17:13:13;100755.27;;;-4.30;68.07
83418;BME280;74442;50.104;14.472;2024-01-10T17:15:46;100754.46;;;-4.36;68.10
83418;BME280;74442;50.104;14.472;2024-01-10T17:18:24;100757.48;;;-4.40;68.35
83418;BME280;74442;50.104;14.472;2024-01-10T17:21:01;100756.20;;;-4.39;68.65
83418;BME280;74442;50.104;14.472;2024-01-10T17:23:33;100757.20;;;-4.27;69.05
83418;BME280;74442;50.104;14.472;2024-01-10T17:26:05;100754.64;;;-4.23;68.82
83418;BME280;74442;50.104;14.472;2024-01-10T17:28:41;100752.23;;;-4.21;68.77
83418;BME280;74442;50.104;14.472;2024-01-10T17:31:16;100753.67;;;-4.22;68.91
83418;BME280;74442;50.104;14.472;2024-01-10T17:33:50;100752.94;;;-4.25;68.93
83418;BME280;74442;50.104;14.472;2024-01-10T17:36:24;100753.61;;;-4.34;68.87
83418;BME280;74442;50.104;14.472;2024-01-10T17:38:57;100756.33;;;-4.44;69.07
83418;BME280;74442;50.104;14.472;2024-01-10T17:41:29;100755.38;;;-4.55;69.20
83418;BME280;74442;50.104;14.472;2024-01-10T17:44:02;100759.55;;;-4.64;69.57
83418;BME280;74442;50.104;14.472;2024-01-10T17:46:33;100761.17;;;-4.69;69.81
83418;BME280;74442;50.104;14.472;2024-01-10T17:49:06;100753.60;;;-4.75;70.07
83418;BME280;74442;50.104;14.472;2024-01-10T17:51:38;100758.23;;;-4.82;70.22
83418;BME280;74442;50.104;14.472;2024-01-10T17:54:08;100761.87;;;-4.90;70.62
83418;BME280;74442;50.104;14.472;2024-01-10T17:56:42;100768.14;;;-4.94;70.85
83418;BME280;74442;50.104;14.472;2024-01-10T17:59:15;100769.32;;;-4.98;71.31
83418;BME280;74442;50.104;14.472;2024-01-10T18:01:47;100763.19;;;-5.00;71.40
83418;BME280;74442;50.104;14.472;2024-01-10T18:04:20;100758.09;;;-5.04;71.42
83418;BME280;74442;50.104;14.472;2024-01-10T18:06:51;100755.02;;;-5.10;71.62
83418;BME280;74442;50.104;14.472;2024-01-10T18:09:25;100760.70;;;-5.03;72.47
83418;BME280;74442;50.104;14.472;2024-01-10T18:11:56;100762.33;;;-4.94;72.44
83418;BME280;74442;50.104;14.472;2024-01-10T18:14:28;100763.88;;;-4.88;72.33
83418;BME280;74442;50.104;14.472;2024-01-10T18:17:00;100768.05;;;-4.89;72.03
83418;BME280;74442;50.104;14.472;2024-01-10T18:19:35;100770.12;;;-4.90;72.35
83418;BME280;74442;50.104;14.472;2024-01-10T18:22:05;100768.83;;;-4.90;72.96
83418;BME280;74442;50.104;14.472;2024-01-10T18:24:38;100766.58;;;-4.90;72.80
83418;BME280;74442;50.104;14.472;2024-01-10T18:30:06;100764.95;;;-4.97;73.10
83418;BME280;74442;50.104;14.472;2024-01-10T18:32:54;100766.98;;;-5.03;73.27
83418;BME280;74442;50.104;14.472;2024-01-10T18:35:29;100770.64;;;-5.10;73.35
83418;BME280;74442;50.104;14.472;2024-01-10T18:38:08;100771.00;;;-5.12;73.56